createdAt,value
2019-02-07T00:00:26.787Z,1000.48
2019-02-07T00:01:37.901Z,1000.48
2019-02-07T00:02:49.005Z,1000.46
2019-02-07T00:03:59.629Z,1000.44
2019-02-07T00:05:10.739Z,1000.42
2019-02-07T00:06:21.842Z,1000.45
2019-02-07T00:07:32.952Z,1000.43
2019-02-07T00:08:43.587Z,1000.44
2019-02-07T00:09:54.698Z,1000.45
2019-02-07T00:11:05.809Z,1000.42
2019-02-07T00:12:16.921Z,1000.40
2019-02-07T00:13:28.041Z,1000.40
2019-02-07T00:14:39.978Z,1000.38
2019-02-07T00:15:50.255Z,1000.36
2019-02-07T00:17:01.368Z,1000.33
2019-02-07T00:18:12.615Z,1000.34
2019-02-07T00:19:23.736Z,1000.32
2019-02-07T00:20:34.846Z,1000.31
2019-02-07T00:21:45.955Z,1000.27
2019-02-07T00:22:57.059Z,1000.23
2019-02-07T00:24:08.166Z,1000.25
2019-02-07T00:25:18.771Z,1000.24
2019-02-07T00:26:29.900Z,1000.18
2019-02-07T00:27:41.007Z,1000.16
2019-02-07T00:28:51.622Z,1000.15
2019-02-07T00:30:02.222Z,1000.15
2019-02-07T00:31:12.843Z,1000.16
2019-02-07T00:32:23.448Z,1000.13
2019-02-07T00:33:34.573Z,1000.10
2019-02-07T00:34:45.685Z,1000.05
2019-02-07T00:35:57.786Z,1000.06
2019-02-07T00:37:08.905Z,1000.04
2019-02-07T00:38:20.022Z,1000.00
2019-02-07T00:39:31.134Z,1000.00
2019-02-07T00:40:42.244Z,999.96
2019-02-07T00:41:54.355Z,999.92
2019-02-07T00:43:05.464Z,999.89
2019-02-07T00:44:16.623Z,999.91
2019-02-07T00:45:27.740Z,999.92
2019-02-07T00:46:39.851Z,999.87
2019-02-07T00:47:50.976Z,999.88
2019-02-07T00:49:02.096Z,999.84
2019-02-07T00:50:13.219Z,999.83
2019-02-07T00:51:24.334Z,999.84
2019-02-07T00:52:35.445Z,999.82
2019-02-07T00:53:46.613Z,999.79
2019-02-07T00:54:57.816Z,999.84
2019-02-07T00:56:08.847Z,999.80
2019-02-07T00:57:19.952Z,999.75
2019-02-07T00:58:31.063Z,999.77
2019-02-07T00:59:42.174Z,999.73
2019-02-07T01:00:53.302Z,999.69
2019-02-07T01:02:03.917Z,999.67
2019-02-07T01:03:15.026Z,999.68
2019-02-07T01:04:26.135Z,999.65
2019-02-07T01:05:37.244Z,999.66
2019-02-07T01:06:48.345Z,999.61
2019-02-07T01:07:59.470Z,999.60
2019-02-07T01:09:10.625Z,999.57
2019-02-07T01:10:21.764Z,999.56
2019-02-07T01:11:32.871Z,999.61
2019-02-07T01:12:43.969Z,999.54
2019-02-07T01:13:54.574Z,999.49
2019-02-07T01:15:05.685Z,999.51
2019-02-07T01:16:16.797Z,999.52
2019-02-07T01:17:28.907Z,999.53
2019-02-07T01:18:40.018Z,999.52
2019-02-07T01:19:51.141Z,999.52
2019-02-07T01:21:02.552Z,999.46
2019-02-07T01:22:13.165Z,999.49
2019-02-07T01:23:23.788Z,999.45
2019-02-07T01:24:34.892Z,999.43
2019-02-07T01:25:46.003Z,999.52
2019-02-07T01:26:56.614Z,999.52
2019-02-07T01:28:07.729Z,999.49
2019-02-07T01:29:18.363Z,999.47
2019-02-07T01:30:29.470Z,999.45
2019-02-07T01:31:40.153Z,999.47
2019-02-07T01:32:51.277Z,999.48
2019-02-07T01:34:02.389Z,999.46
2019-02-07T01:35:13.500Z,999.51
2019-02-07T01:36:24.618Z,999.47
2019-02-07T01:37:35.730Z,999.45
2019-02-07T01:38:46.836Z,999.38
2019-02-07T01:39:57.958Z,999.39
2019-02-07T01:41:09.065Z,999.37
2019-02-07T01:42:19.682Z,999.40
2019-02-07T01:43:30.792Z,999.33
2019-02-07T01:44:41.893Z,999.27
2019-02-07T01:45:53.002Z,999.30
2019-02-07T01:47:04.113Z,999.28
2019-02-07T01:48:14.725Z,999.28
2019-02-07T01:49:25.825Z,999.23
2019-02-07T01:50:36.940Z,999.18
2019-02-07T01:51:48.052Z,999.18
2019-02-07T01:52:59.141Z,999.19
2019-02-07T01:54:10.266Z,999.18
2019-02-07T01:55:21.373Z,999.15
2019-02-07T01:56:32.985Z,999.13
2019-02-07T01:57:44.097Z,999.12
2019-02-07T01:58:55.240Z,999.02
2019-02-07T02:00:06.339Z,999.02
2019-02-07T02:01:17.458Z,998.96
2019-02-07T02:02:28.630Z,998.98
2019-02-07T02:03:39.743Z,998.96
2019-02-07T02:04:50.846Z,999.00
2019-02-07T02:06:01.978Z,998.93
2019-02-07T02:07:13.075Z,998.98
2019-02-07T02:08:24.191Z,998.95
2019-02-07T02:09:35.296Z,998.93
2019-02-07T02:10:46.405Z,998.86
2019-02-07T02:11:57.612Z,998.81
2019-02-07T02:13:08.736Z,998.78
2019-02-07T02:14:19.845Z,998.83
2019-02-07T02:15:30.962Z,998.87
2019-02-07T02:16:42.068Z,998.89
2019-02-07T02:17:53.188Z,998.95
2019-02-07T02:19:04.275Z,998.91
2019-02-07T02:20:15.373Z,998.88
2019-02-07T02:21:26.478Z,998.86
2019-02-07T02:22:37.623Z,998.83
2019-02-07T02:23:48.730Z,998.84
2019-02-07T02:24:59.860Z,998.80
2019-02-07T02:26:10.980Z,998.78
2019-02-07T02:27:22.092Z,998.74
2019-02-07T02:28:33.205Z,998.78
2019-02-07T02:29:44.330Z,998.72
2019-02-07T02:30:55.449Z,998.70
2019-02-07T02:32:06.550Z,998.65
2019-02-07T02:33:17.670Z,998.61
2019-02-07T02:34:28.282Z,998.59
2019-02-07T02:35:38.925Z,998.63
2019-02-07T02:36:50.000Z,998.59
2019-02-07T02:38:00.602Z,998.55
2019-02-07T02:39:11.217Z,998.46
2019-02-07T02:40:21.839Z,998.47
2019-02-07T02:41:32.943Z,998.46
2019-02-07T02:42:44.045Z,998.40
2019-02-07T02:43:54.667Z,998.38
2019-02-07T02:45:05.777Z,998.35
2019-02-07T02:46:16.882Z,998.36
2019-02-07T02:47:27.993Z,998.37
2019-02-07T02:48:39.104Z,998.30
2019-02-07T02:49:50.202Z,998.29
2019-02-07T02:51:01.306Z,998.21
2019-02-07T02:52:12.417Z,998.17
2019-02-07T02:53:23.625Z,998.19
2019-02-07T02:54:34.239Z,998.18
2019-02-07T02:55:45.342Z,998.14
2019-02-07T02:56:56.156Z,998.11
2019-02-07T02:58:06.765Z,998.05
2019-02-07T02:59:17.873Z,997.99
2019-02-07T03:00:28.986Z,998.00
2019-02-07T03:01:40.081Z,997.97
2019-02-07T03:02:51.183Z,997.92
2019-02-07T03:04:02.283Z,997.87
2019-02-07T03:05:13.388Z,997.85
2019-02-07T03:06:24.498Z,997.87
2019-02-07T03:07:35.598Z,997.84
2019-02-07T03:08:46.707Z,997.83
2019-02-07T03:09:57.830Z,997.80
2019-02-07T03:11:08.930Z,997.79
2019-02-07T03:12:20.041Z,997.79
2019-02-07T03:13:31.136Z,997.74
2019-02-07T03:14:41.752Z,997.71
2019-02-07T03:15:52.863Z,997.79
2019-02-07T03:17:03.470Z,997.75
2019-02-07T03:18:14.071Z,997.70
2019-02-07T03:19:25.182Z,997.64
2019-02-07T03:20:36.304Z,997.64
2019-02-07T03:21:47.421Z,997.57
2019-02-07T03:22:58.528Z,997.53
2019-02-07T03:24:09.622Z,997.47
2019-02-07T03:25:20.731Z,997.47
2019-02-07T03:26:31.838Z,997.52
2019-02-07T03:27:42.952Z,997.63
2019-02-07T03:28:53.564Z,997.66
2019-02-07T03:30:04.679Z,997.68
2019-02-07T03:31:15.793Z,997.65
2019-02-07T03:32:26.893Z,997.63
2019-02-07T03:33:38.004Z,997.72
2019-02-07T03:34:49.118Z,997.72
2019-02-07T03:36:00.226Z,997.74
2019-02-07T03:37:11.337Z,997.73
2019-02-07T03:38:21.940Z,997.66
2019-02-07T03:39:33.039Z,997.66
2019-02-07T03:40:43.657Z,997.60
2019-02-07T03:41:54.856Z,997.54
2019-02-07T03:43:05.861Z,997.51
2019-02-07T03:44:16.486Z,997.44
2019-02-07T03:45:27.580Z,997.46
2019-02-07T03:46:38.685Z,997.41
2019-02-07T03:47:49.795Z,997.39
2019-02-07T03:49:00.394Z,997.40
2019-02-07T03:50:11.623Z,997.38
2019-02-07T03:51:22.737Z,997.34
2019-02-07T03:52:33.846Z,997.35
2019-02-07T03:53:44.951Z,997.33
2019-02-07T03:54:56.059Z,997.27
2019-02-07T03:56:07.171Z,997.28
2019-02-07T03:57:18.292Z,997.23
2019-02-07T03:58:29.392Z,997.18
2019-02-07T03:59:40.009Z,997.12
2019-02-07T04:00:51.115Z,997.12
2019-02-07T04:02:02.221Z,997.08
2019-02-07T04:03:13.365Z,997.02
2019-02-07T04:04:24.432Z,997.03
2019-02-07T04:05:35.541Z,997.07
2019-02-07T04:06:46.653Z,997.02
2019-02-07T04:07:57.769Z,997.03
2019-02-07T04:09:08.378Z,997.03
2019-02-07T04:10:19.482Z,997.04
2019-02-07T04:11:30.596Z,997.00
2019-02-07T04:12:41.708Z,996.94
2019-02-07T04:13:52.819Z,996.97
2019-02-07T04:15:03.924Z,997.00
2019-02-07T04:16:15.761Z,997.02
2019-02-07T04:17:26.153Z,997.01
2019-02-07T04:18:37.262Z,996.98
2019-02-07T04:19:48.366Z,996.96
2019-02-07T04:20:59.480Z,996.94
2019-02-07T04:22:10.587Z,996.91
2019-02-07T04:23:21.694Z,996.89
2019-02-07T04:24:32.790Z,996.85
2019-02-07T04:25:43.901Z,996.84
2019-02-07T04:26:55.018Z,996.87
2019-02-07T04:28:06.113Z,996.85
2019-02-07T04:29:17.213Z,996.77
2019-02-07T04:30:28.313Z,996.77
2019-02-07T04:31:39.422Z,996.72
2019-02-07T04:32:50.525Z,996.73
2019-02-07T04:34:01.630Z,996.66
2019-02-07T04:35:12.741Z,996.68
2019-02-07T04:36:23.838Z,996.68
2019-02-07T04:37:34.952Z,996.73
2019-02-07T04:38:46.062Z,996.70
2019-02-07T04:39:57.154Z,996.65
2019-02-07T04:41:08.263Z,996.61
2019-02-07T04:42:19.369Z,996.61
2019-02-07T04:43:29.987Z,996.52
2019-02-07T04:44:41.087Z,996.60
2019-02-07T04:45:52.198Z,996.52
2019-02-07T04:47:03.314Z,996.50
2019-02-07T04:48:13.940Z,996.51
2019-02-07T04:49:25.045Z,996.51
2019-02-07T04:50:35.663Z,996.51
2019-02-07T04:51:46.772Z,996.51
2019-02-07T04:52:59.227Z,996.57
2019-02-07T04:54:08.480Z,996.53
2019-02-07T04:55:19.620Z,996.47
2019-02-07T04:56:30.718Z,996.45
2019-02-07T04:57:41.832Z,996.49
2019-02-07T04:58:52.933Z,996.49
2019-02-07T05:00:04.039Z,996.46
2019-02-07T05:01:15.135Z,996.41
2019-02-07T05:02:26.245Z,996.38
2019-02-07T05:03:36.861Z,996.36
2019-02-07T05:04:47.970Z,996.40
2019-02-07T05:05:59.073Z,996.42
2019-02-07T05:07:10.180Z,996.46
2019-02-07T05:08:21.295Z,996.37
2019-02-07T05:09:32.407Z,996.43
2019-02-07T05:10:43.019Z,996.45
2019-02-07T05:11:54.133Z,996.51
2019-02-07T05:13:05.229Z,996.52
2019-02-07T05:14:16.332Z,996.54
2019-02-07T05:15:27.441Z,996.45
2019-02-07T05:16:41.254Z,996.45
2019-02-07T05:17:49.177Z,996.47
2019-02-07T05:19:00.285Z,996.40
2019-02-07T05:20:11.387Z,996.40
2019-02-07T05:21:22.504Z,996.30
2019-02-07T05:22:33.618Z,996.32
2019-02-07T05:23:44.728Z,996.29
2019-02-07T05:24:55.835Z,996.27
2019-02-07T05:26:07.939Z,996.23
2019-02-07T05:27:19.051Z,996.24
2019-02-07T05:28:30.161Z,996.24
2019-02-07T05:29:41.271Z,996.22
2019-02-07T05:30:51.981Z,996.24
2019-02-07T05:32:02.991Z,996.24
2019-02-07T05:33:14.095Z,996.19
2019-02-07T05:34:25.204Z,996.25
2019-02-07T05:35:36.311Z,996.23
2019-02-07T05:36:46.974Z,996.18
2019-02-07T05:37:58.064Z,996.17
2019-02-07T05:39:09.191Z,996.06
2019-02-07T05:40:20.293Z,996.07
2019-02-07T05:41:31.415Z,996.05
2019-02-07T05:42:42.518Z,996.01
2019-02-07T05:43:53.633Z,995.98
2019-02-07T05:45:04.740Z,995.99
2019-02-07T05:46:15.359Z,995.98
2019-02-07T05:47:26.483Z,995.97
2019-02-07T05:48:37.626Z,995.97
2019-02-07T05:49:48.739Z,996.00
2019-02-07T05:50:59.847Z,996.02
2019-02-07T05:52:10.953Z,995.98
2019-02-07T05:53:22.060Z,995.93
2019-02-07T05:54:32.678Z,995.99
2019-02-07T05:55:43.776Z,995.96
2019-02-07T05:56:54.888Z,996.02
2019-02-07T05:58:05.644Z,996.01
2019-02-07T05:59:16.260Z,995.97
2019-02-07T06:00:26.877Z,995.98
2019-02-07T06:01:37.492Z,995.96
2019-02-07T06:02:48.102Z,995.92
2019-02-07T06:03:58.723Z,995.97
2019-02-07T06:05:09.830Z,995.91
2019-02-07T06:06:20.440Z,995.90
2019-02-07T06:07:31.045Z,995.89
2019-02-07T06:08:41.666Z,995.89
2019-02-07T06:09:52.284Z,995.88
2019-02-07T06:11:02.888Z,995.83
2019-02-07T06:12:13.491Z,995.87
2019-02-07T06:13:24.096Z,995.87
2019-02-07T06:14:34.711Z,995.88
2019-02-07T06:15:45.346Z,995.88
2019-02-07T06:17:02.859Z,995.84
2019-02-07T06:18:06.577Z,995.84
2019-02-07T06:19:17.187Z,995.82
2019-02-07T06:20:27.803Z,995.79
2019-02-07T06:21:38.406Z,995.75
2019-02-07T06:22:49.018Z,995.67
2019-02-07T06:23:59.630Z,995.69
2019-02-07T06:25:10.242Z,995.75
2019-02-07T06:26:20.845Z,995.79
2019-02-07T06:27:31.959Z,995.84
2019-02-07T06:28:43.062Z,995.78
2019-02-07T06:29:53.667Z,995.81
2019-02-07T06:31:04.287Z,995.81
2019-02-07T06:32:14.897Z,995.80
2019-02-07T06:33:25.511Z,995.75
2019-02-07T06:34:36.127Z,995.77
2019-02-07T06:35:46.746Z,995.78
2019-02-07T06:36:57.360Z,995.70
2019-02-07T06:38:08.477Z,995.67
2019-02-07T06:39:19.623Z,995.68
2019-02-07T06:40:30.738Z,995.67
2019-02-07T06:41:41.344Z,995.65
2019-02-07T06:42:51.957Z,995.68
2019-02-07T06:44:02.575Z,995.68
2019-02-07T06:45:13.282Z,995.71
2019-02-07T06:46:23.891Z,995.74
2019-02-07T06:47:34.502Z,995.84
2019-02-07T06:48:45.121Z,995.82
2019-02-07T06:49:55.745Z,995.72
2019-02-07T06:51:06.365Z,995.72
2019-02-07T06:52:16.977Z,995.67
2019-02-07T06:53:27.583Z,995.65
2019-02-07T06:54:38.195Z,995.72
2019-02-07T06:55:48.801Z,995.71
2019-02-07T06:56:59.421Z,995.67
2019-02-07T06:58:10.041Z,995.65
2019-02-07T06:59:20.701Z,995.64
2019-02-07T07:00:31.821Z,995.65
2019-02-07T07:01:42.430Z,995.63
2019-02-07T07:02:53.046Z,995.59
2019-02-07T07:04:03.662Z,995.59
2019-02-07T07:05:14.289Z,995.60
2019-02-07T07:06:24.991Z,995.69
2019-02-07T07:07:35.512Z,995.68
2019-02-07T07:08:46.124Z,995.76
2019-02-07T07:09:57.236Z,995.65
2019-02-07T07:11:07.842Z,995.63
2019-02-07T07:12:18.451Z,995.57
2019-02-07T07:13:29.077Z,995.66
2019-02-07T07:14:39.700Z,995.65
2019-02-07T07:15:50.318Z,995.67
2019-02-07T07:17:00.937Z,995.64
2019-02-07T07:18:11.554Z,995.60
2019-02-07T07:19:22.178Z,995.55
2019-02-07T07:20:32.801Z,995.60
2019-02-07T07:21:43.440Z,995.60
2019-02-07T07:22:54.058Z,995.58
2019-02-07T07:24:04.669Z,995.57
2019-02-07T07:25:15.282Z,995.55
2019-02-07T07:26:26.402Z,995.54
2019-02-07T07:27:37.026Z,995.58
2019-02-07T07:28:47.660Z,995.54
2019-02-07T07:29:58.275Z,995.55
2019-02-07T07:31:09.387Z,995.49
2019-02-07T07:32:20.004Z,995.51
2019-02-07T07:33:30.618Z,995.53
2019-02-07T07:34:41.243Z,995.59
2019-02-07T07:35:51.854Z,995.55
2019-02-07T07:37:02.465Z,995.41
2019-02-07T07:38:13.083Z,995.40
2019-02-07T07:39:23.704Z,995.44
2019-02-07T07:40:34.315Z,995.47
2019-02-07T07:41:44.942Z,995.43
2019-02-07T07:42:55.562Z,995.42
2019-02-07T07:44:06.187Z,995.41
2019-02-07T07:45:16.813Z,995.46
2019-02-07T07:46:27.433Z,995.42
2019-02-07T07:47:38.055Z,995.42
2019-02-07T07:48:48.682Z,995.38
2019-02-07T07:49:59.326Z,995.39
2019-02-07T07:51:09.945Z,995.44
2019-02-07T07:52:20.571Z,995.45
2019-02-07T07:53:31.195Z,995.37
2019-02-07T07:54:41.819Z,995.36
2019-02-07T07:55:52.442Z,995.32
2019-02-07T07:57:03.066Z,995.26
2019-02-07T07:58:13.707Z,995.22
2019-02-07T07:59:24.334Z,995.17
2019-02-07T08:00:34.949Z,995.19
2019-02-07T08:01:46.066Z,995.20
2019-02-07T08:02:56.705Z,995.29
2019-02-07T08:04:07.332Z,995.36
2019-02-07T08:05:17.955Z,995.44
2019-02-07T08:06:28.589Z,995.41
2019-02-07T08:07:39.212Z,995.38
2019-02-07T08:08:49.834Z,995.30
2019-02-07T08:10:01.444Z,995.30
2019-02-07T08:11:12.063Z,995.37
2019-02-07T08:12:22.689Z,995.41
2019-02-07T08:13:33.316Z,995.37
2019-02-07T08:14:43.942Z,995.42
2019-02-07T08:15:54.564Z,995.25
2019-02-07T08:17:05.195Z,995.26
2019-02-07T08:18:15.814Z,995.30
2019-02-07T08:19:26.437Z,995.27
2019-02-07T08:20:37.067Z,995.34
2019-02-07T08:21:47.676Z,995.27
2019-02-07T08:22:58.367Z,995.26
2019-02-07T08:24:08.994Z,995.27
2019-02-07T08:25:19.622Z,995.28
2019-02-07T08:26:30.244Z,995.24
2019-02-07T08:27:40.902Z,995.22
2019-02-07T08:28:51.547Z,995.24
2019-02-07T08:30:02.160Z,995.23
2019-02-07T08:31:13.782Z,995.20
2019-02-07T08:32:24.414Z,995.22
2019-02-07T08:33:35.036Z,995.21
2019-02-07T08:34:45.655Z,995.28
2019-02-07T08:35:56.270Z,995.26
2019-02-07T08:37:07.435Z,995.26
2019-02-07T08:38:18.080Z,995.27
2019-02-07T08:39:28.668Z,995.27
2019-02-07T08:40:39.287Z,995.32
2019-02-07T08:41:49.908Z,995.24
2019-02-07T08:43:00.534Z,995.22
2019-02-07T08:44:14.041Z,995.24
2019-02-07T08:45:21.783Z,995.14
2019-02-07T08:46:32.416Z,995.11
2019-02-07T08:47:43.041Z,995.14
2019-02-07T08:48:53.677Z,995.17
2019-02-07T08:50:04.297Z,995.20
2019-02-07T08:51:14.919Z,995.22
2019-02-07T08:52:25.729Z,995.24
2019-02-07T08:53:36.332Z,995.18
2019-02-07T08:54:46.967Z,995.17
2019-02-07T08:55:57.580Z,995.12
2019-02-07T08:57:08.215Z,995.09
2019-02-07T08:58:18.848Z,995.04
2019-02-07T08:59:29.650Z,995.05
2019-02-07T09:00:40.287Z,995.05
2019-02-07T09:01:50.909Z,995.09
2019-02-07T09:03:01.551Z,994.98
2019-02-07T09:04:12.176Z,994.96
2019-02-07T09:05:22.799Z,995.01
2019-02-07T09:06:33.430Z,995.05
2019-02-07T09:07:44.119Z,995.01
2019-02-07T09:08:54.745Z,994.98
2019-02-07T09:10:05.380Z,994.99
2019-02-07T09:11:16.018Z,995.06
2019-02-07T09:12:26.640Z,995.08
2019-02-07T09:13:37.296Z,995.14
2019-02-07T09:14:47.927Z,995.14
2019-02-07T09:15:58.561Z,995.14
2019-02-07T09:17:09.196Z,995.13
2019-02-07T09:18:19.884Z,995.17
2019-02-07T09:19:30.466Z,995.13
2019-02-07T09:20:41.101Z,995.05
2019-02-07T09:21:51.726Z,995.08
2019-02-07T09:23:02.362Z,995.05
2019-02-07T09:24:13.020Z,995.08
2019-02-07T09:25:23.651Z,995.02
2019-02-07T09:26:34.287Z,994.99
2019-02-07T09:27:44.921Z,995.00
2019-02-07T09:28:55.627Z,995.00
2019-02-07T09:30:06.194Z,994.96
2019-02-07T09:31:16.821Z,995.07
2019-02-07T09:32:27.474Z,995.07
2019-02-07T09:33:38.117Z,995.09
2019-02-07T09:34:48.756Z,995.15
2019-02-07T09:36:05.252Z,995.09
2019-02-07T09:37:10.032Z,995.10
2019-02-07T09:38:20.664Z,995.21
2019-02-07T09:39:31.314Z,995.20
2019-02-07T09:40:41.934Z,995.19
2019-02-07T09:41:52.577Z,995.17
2019-02-07T09:43:03.215Z,995.14
2019-02-07T09:44:13.847Z,995.15
2019-02-07T09:45:24.487Z,995.13
2019-02-07T09:46:35.121Z,995.08
2019-02-07T09:47:45.771Z,995.16
2019-02-07T09:48:56.397Z,995.14
2019-02-07T09:50:07.187Z,995.12
2019-02-07T09:51:18.016Z,995.04
2019-02-07T09:52:28.651Z,994.98
2019-02-07T09:53:39.300Z,994.88
2019-02-07T09:54:49.935Z,994.87
2019-02-07T09:56:00.579Z,994.82
2019-02-07T09:57:11.220Z,994.83
2019-02-07T09:58:22.345Z,994.87
2019-02-07T09:59:32.987Z,994.86
2019-02-07T10:00:43.627Z,994.92
2019-02-07T10:01:54.273Z,994.94
2019-02-07T10:03:04.915Z,994.93
2019-02-07T10:04:15.552Z,994.98
2019-02-07T10:05:26.215Z,994.88
2019-02-07T10:06:36.855Z,994.87
2019-02-07T10:07:47.639Z,994.92
2019-02-07T10:08:58.270Z,994.88
2019-02-07T10:10:08.915Z,994.94
2019-02-07T10:11:19.648Z,994.91
2019-02-07T10:12:30.295Z,994.90
2019-02-07T10:13:40.938Z,994.95
2019-02-07T10:14:51.586Z,994.89
2019-02-07T10:16:02.226Z,994.83
2019-02-07T10:17:12.869Z,994.80
2019-02-07T10:18:32.773Z,994.71
2019-02-07T10:19:34.151Z,994.76
2019-02-07T10:20:45.804Z,994.67
2019-02-07T10:21:56.457Z,994.64
2019-02-07T10:23:07.106Z,994.71
2019-02-07T10:24:17.747Z,994.78
2019-02-07T10:25:28.397Z,994.82
2019-02-07T10:26:39.042Z,994.81
2019-02-07T10:27:49.678Z,994.81
2019-02-07T10:29:00.333Z,994.77
2019-02-07T10:30:10.966Z,994.77
2019-02-07T10:31:21.615Z,994.84
2019-02-07T10:32:32.259Z,994.85
2019-02-07T10:33:43.096Z,994.84
2019-02-07T10:34:53.740Z,994.80
2019-02-07T10:36:04.383Z,994.80
2019-02-07T10:37:15.028Z,994.81
2019-02-07T10:38:25.664Z,994.85
2019-02-07T10:39:36.310Z,994.87
2019-02-07T10:40:46.962Z,994.89
2019-02-07T10:41:57.616Z,994.82
2019-02-07T10:43:08.274Z,995.00
2019-02-07T10:44:18.915Z,994.92
2019-02-07T10:45:29.556Z,994.94
2019-02-07T10:46:40.191Z,994.90
2019-02-07T10:47:50.844Z,994.87
2019-02-07T10:49:01.500Z,994.81
2019-02-07T10:50:12.140Z,994.83
2019-02-07T10:51:23.311Z,994.88
2019-02-07T10:52:33.941Z,994.84
2019-02-07T10:53:44.593Z,994.83
2019-02-07T10:54:55.787Z,994.72
2019-02-07T10:56:06.387Z,994.71
2019-02-07T10:57:17.031Z,994.71
2019-02-07T10:58:27.678Z,994.78
2019-02-07T10:59:38.328Z,994.71
2019-02-07T11:00:48.997Z,994.65
2019-02-07T11:02:00.623Z,994.56
2019-02-07T11:03:11.278Z,994.55
2019-02-07T11:04:21.941Z,994.53
2019-02-07T11:05:33.097Z,994.57
2019-02-07T11:06:43.742Z,994.47
2019-02-07T11:07:54.399Z,994.48
2019-02-07T11:09:05.045Z,994.55
2019-02-07T11:10:15.700Z,994.61
2019-02-07T11:11:26.846Z,994.50
2019-02-07T11:12:37.506Z,994.53
2019-02-07T11:13:48.177Z,994.65
2019-02-07T11:14:58.821Z,994.50
2019-02-07T11:16:09.625Z,994.52
2019-02-07T11:17:20.287Z,994.49
2019-02-07T11:18:30.944Z,994.45
2019-02-07T11:19:41.601Z,994.44
2019-02-07T11:20:52.254Z,994.42
2019-02-07T11:22:02.900Z,994.42
2019-02-07T11:23:13.556Z,994.45
2019-02-07T11:24:24.222Z,994.55
2019-02-07T11:25:35.186Z,994.55
2019-02-07T11:26:45.773Z,994.46
2019-02-07T11:27:57.427Z,994.49
2019-02-07T11:29:08.085Z,994.51
2019-02-07T11:30:18.742Z,994.45
2019-02-07T11:31:29.400Z,994.39
2019-02-07T11:32:40.054Z,994.40
2019-02-07T11:33:51.190Z,994.36
2019-02-07T11:35:01.839Z,994.41
2019-02-07T11:36:12.479Z,994.36
2019-02-07T11:37:23.136Z,994.38
2019-02-07T11:38:34.294Z,994.41
2019-02-07T11:39:44.953Z,994.26
2019-02-07T11:40:55.597Z,994.31
2019-02-07T11:42:06.744Z,994.34
2019-02-07T11:43:17.401Z,994.35
2019-02-07T11:44:28.053Z,994.32
2019-02-07T11:45:38.692Z,994.36
2019-02-07T11:46:49.331Z,994.42
2019-02-07T11:47:59.977Z,994.39
2019-02-07T11:49:10.627Z,994.40
2019-02-07T11:50:21.283Z,994.51
2019-02-07T11:51:32.418Z,994.44
2019-02-07T11:52:43.068Z,994.36
2019-02-07T11:53:53.711Z,994.40
2019-02-07T11:55:04.351Z,994.39
2019-02-07T11:56:15.616Z,994.34
2019-02-07T11:57:26.258Z,994.30
2019-02-07T11:58:36.924Z,994.24
2019-02-07T11:59:47.565Z,994.27
2019-02-07T12:00:58.211Z,994.26
2019-02-07T12:02:09.495Z,994.27
2019-02-07T12:03:19.501Z,994.28
2019-02-07T12:04:30.176Z,994.26
2019-02-07T12:05:41.827Z,994.28
2019-02-07T12:06:52.484Z,994.34
2019-02-07T12:08:03.653Z,994.30
2019-02-07T12:09:14.800Z,994.32
2019-02-07T12:10:25.451Z,994.27
2019-02-07T12:11:36.102Z,994.10
2019-02-07T12:12:46.751Z,994.11
2019-02-07T12:13:57.566Z,994.07
2019-02-07T12:15:08.224Z,994.08
2019-02-07T12:16:18.873Z,994.04
2019-02-07T12:17:29.752Z,994.14
2019-02-07T12:18:40.399Z,994.11
2019-02-07T12:19:51.049Z,994.11
2019-02-07T12:21:01.704Z,994.11
2019-02-07T12:22:12.377Z,994.14
2019-02-07T12:23:23.024Z,994.12
2019-02-07T12:24:33.679Z,994.09
2019-02-07T12:25:44.341Z,993.96
2019-02-07T12:26:54.994Z,993.96
2019-02-07T12:28:05.652Z,993.97
2019-02-07T12:29:16.308Z,994.03
2019-02-07T12:30:27.930Z,994.05
2019-02-07T12:31:38.577Z,994.05
2019-02-07T12:32:49.268Z,994.05
2019-02-07T12:33:59.918Z,994.01
2019-02-07T12:35:10.572Z,994.07
2019-02-07T12:36:21.221Z,994.04
2019-02-07T12:37:31.874Z,994.02
2019-02-07T12:38:42.534Z,993.91
2019-02-07T12:39:53.190Z,993.96
2019-02-07T12:41:03.836Z,993.94
2019-02-07T12:42:14.492Z,993.97
2019-02-07T12:43:25.634Z,993.92
2019-02-07T12:44:36.302Z,994.00
2019-02-07T12:45:46.956Z,993.99
2019-02-07T12:46:57.615Z,994.00
2019-02-07T12:48:08.768Z,993.99
2019-02-07T12:49:28.904Z,994.00
2019-02-07T12:50:30.096Z,993.97
2019-02-07T12:51:41.297Z,993.90
2019-02-07T12:52:51.910Z,993.96
2019-02-07T12:54:02.639Z,993.95
2019-02-07T12:55:13.301Z,993.86
2019-02-07T12:56:23.978Z,993.81
2019-02-07T12:57:34.627Z,993.75
2019-02-07T12:58:45.285Z,993.78
2019-02-07T12:59:55.951Z,993.77
2019-02-07T13:01:06.618Z,993.71
2019-02-07T13:02:17.302Z,993.76
2019-02-07T13:03:27.954Z,993.81
2019-02-07T13:04:38.627Z,993.83
2019-02-07T13:05:49.286Z,993.79
2019-02-07T13:06:59.971Z,993.81
2019-02-07T13:08:10.641Z,993.78
2019-02-07T13:09:21.310Z,993.72
2019-02-07T13:10:31.971Z,993.67
2019-02-07T13:11:42.656Z,993.71
2019-02-07T13:12:53.378Z,993.65
2019-02-07T13:14:04.025Z,993.69
2019-02-07T13:15:14.687Z,993.69
2019-02-07T13:16:25.368Z,993.66
2019-02-07T13:17:36.186Z,993.64
2019-02-07T13:18:46.689Z,993.71
2019-02-07T13:19:57.380Z,993.76
2019-02-07T13:21:08.061Z,993.80
2019-02-07T13:22:18.691Z,993.80
2019-02-07T13:23:29.355Z,993.78
2019-02-07T13:24:40.043Z,993.81
2019-02-07T13:25:50.707Z,993.75
2019-02-07T13:27:01.382Z,993.70
2019-02-07T13:28:12.027Z,993.68
2019-02-07T13:29:22.743Z,993.71
2019-02-07T13:30:33.890Z,993.70
2019-02-07T13:31:44.573Z,993.66
2019-02-07T13:32:55.753Z,993.71
2019-02-07T13:34:07.969Z,993.76
2019-02-07T13:35:18.580Z,993.87
2019-02-07T13:36:29.286Z,993.79
2019-02-07T13:37:39.996Z,993.74
2019-02-07T13:38:51.134Z,993.72
2019-02-07T13:40:02.293Z,993.69
2019-02-07T13:41:13.632Z,993.75
2019-02-07T13:42:24.800Z,993.77
2019-02-07T13:43:35.967Z,993.82
2019-02-07T13:44:46.636Z,993.82
2019-02-07T13:45:57.343Z,993.82
2019-02-07T13:47:08.020Z,993.86
2019-02-07T13:48:19.191Z,993.86
2019-02-07T13:49:31.351Z,993.86
2019-02-07T13:50:42.522Z,993.80
2019-02-07T13:51:54.692Z,993.75
2019-02-07T13:53:05.859Z,993.79
2019-02-07T13:54:17.044Z,993.81
2019-02-07T13:55:27.766Z,993.86
2019-02-07T13:56:39.951Z,993.87
2019-02-07T13:57:51.146Z,993.84
2019-02-07T13:59:02.325Z,993.84
2019-02-07T14:00:13.015Z,993.81
2019-02-07T14:01:24.222Z,993.83
2019-02-07T14:02:35.412Z,993.83
2019-02-07T14:03:46.111Z,993.87
2019-02-07T14:04:57.487Z,993.83
2019-02-07T14:06:08.608Z,993.80
2019-02-07T14:07:19.811Z,993.80
2019-02-07T14:08:38.388Z,993.72
2019-02-07T14:09:42.687Z,993.75
2019-02-07T14:10:53.899Z,993.72
2019-02-07T14:12:05.109Z,993.73
2019-02-07T14:13:16.316Z,993.63
2019-02-07T14:14:27.020Z,993.60
2019-02-07T14:15:37.734Z,993.60
2019-02-07T14:16:48.946Z,993.61
2019-02-07T14:17:59.670Z,993.62
2019-02-07T14:19:10.886Z,993.56
2019-02-07T14:20:22.102Z,993.59
2019-02-07T14:21:32.814Z,993.55
2019-02-07T14:22:43.521Z,993.56
2019-02-07T14:23:54.728Z,993.57
2019-02-07T14:25:05.940Z,993.63
2019-02-07T14:26:16.658Z,993.70
2019-02-07T14:27:27.872Z,993.72
2019-02-07T14:28:39.080Z,993.70
2019-02-07T14:29:50.023Z,993.67
2019-02-07T14:31:01.233Z,993.62
2019-02-07T14:32:12.440Z,993.65
2019-02-07T14:33:23.646Z,993.69
2019-02-07T14:34:34.389Z,993.68
2019-02-07T14:35:45.111Z,993.65
2019-02-07T14:36:55.813Z,993.65
2019-02-07T14:38:06.517Z,993.65
2019-02-07T14:39:17.732Z,993.66
2019-02-07T14:40:28.931Z,993.65
2019-02-07T14:41:39.639Z,993.70
2019-02-07T14:42:50.840Z,993.70